Time;durP1;ratioP1;P1;durP2;ratioP2;P2;SDS_P1;SDS_P2;PMS_P1;PMS_P2;Temp;Humidity;BMP_temperature;BMP_pressure;BME280_temperature;BME280_humidity;BME280_pressure;Samples;Min_cycle;Max_cycle;Signal;HPM_P1;HPM_P2
2023/04/12 00:01:08;;;;;;;11.30;4.07;;;;;;;10.51;100.00;100519.25;6066460;23;20101;-75
2023/04/12 00:03:34;;;;;;;11.63;2.13;;;;;;;10.50;100.00;100529.06;6066266;23;20717;-75
2023/04/12 00:06:02;;;;;;;8.07;1.65;;;;;;;10.40;100.00;100524.47;6069535;23;20015;-75
2023/04/12 00:08:32;;;;;;;11.75;2.45;;;;;;;10.53;100.00;100507.50;6066382;23;20018;-73
2023/04/12 00:11:02;;;;;;;3.28;1.75;;;;;;;10.62;100.00;100504.19;6069032;23;20450;-75
2023/04/12 00:13:28;;;;;;;7.57;1.95;;;;;;;10.56;100.00;100501.97;6071111;23;20113;-74
2023/04/12 00:15:53;;;;;;;7.93;1.90;;;;;;;10.56;100.00;100487.78;6072932;23;20048;-74
2023/04/12 00:18:23;;;;;;;7.53;2.10;;;;;;;10.55;100.00;100491.41;6066151;23;20682;-74
2023/04/12 00:20:51;;;;;;;11.85;2.03;;;;;;;10.44;100.00;100465.50;6071018;23;20637;-74
2023/04/12 00:23:20;;;;;;;7.57;2.05;;;;;;;10.43;100.00;100461.09;6069369;23;20046;-74
2023/04/12 00:25:46;;;;;;;12.70;2.05;;;;;;;10.37;100.00;100472.19;6069909;23;20026;-74
2023/04/12 00:28:11;;;;;;;16.60;2.65;;;;;;;10.11;100.00;100460.63;6069465;23;20018;-72
2023/04/12 00:30:37;;;;;;;12.38;2.42;;;;;;;10.01;100.00;100464.84;6068011;23;20018;-74
2023/04/12 00:33:02;;;;;;;10.85;2.88;;;;;;;10.19;100.00;100460.06;6069296;23;20634;-74
2023/04/12 00:35:28;;;;;;;12.18;2.30;;;;;;;10.19;100.00;100452.09;6065964;23;20015;-75
2023/04/12 00:37:53;;;;;;;8.55;2.80;;;;;;;10.09;100.00;100451.84;6067152;23;20430;-75
2023/04/12 00:40:19;;;;;;;6.05;2.83;;;;;;;9.98;100.00;100447.25;6064470;23;20014;-74
2023/04/12 00:42:45;;;;;;;16.25;3.03;;;;;;;9.98;100.00;100441.94;6066418;23;20014;-75
2023/04/12 00:45:11;;;;;;;11.63;2.50;;;;;;;10.02;100.00;100432.78;6068838;23;20025;-74
2023/04/12 00:47:38;;;;;;;13.23;3.15;;;;;;;10.00;100.00;100421.38;6070040;23;20094;-74
2023/04/12 00:50:05;;;;;;;10.15;2.90;;;;;;;9.89;100.00;100415.94;6066727;23;20755;-75
2023/04/12 00:52:35;;;;;;;13.88;3.42;;;;;;;9.95;100.00;100407.53;6068039;23;20014;-73
2023/04/12 00:55:03;;;;;;;10.68;3.00;;;;;;;9.97;100.00;100396.75;6067661;23;20018;-75
2023/04/12 00:57:37;;;;;;;10.20;2.80;;;;;;;9.83;100.00;100397.69;6067605;23;20089;-75
2023/04/12 01:00:11;;;;;;;11.43;3.40;;;;;;;9.89;100.00;100404.41;6068854;23;20042;-75
2023/04/12 01:02:38;;;;;;;12.45;3.38;;;;;;;9.73;100.00;100388.63;6092938;23;20017;-75
2023/04/12 01:05:06;;;;;;;14.07;3.20;;;;;;;9.89;100.00;100383.97;6072107;23;20018;-75
2023/04/12 01:08:07;;;;;;;10.45;2.70;;;;;;;9.74;100.00;100371.69;6096107;23;20112;-75
2023/04/12 01:10:48;;;;;;;10.90;3.28;;;;;;;9.91;100.00;100379.38;5979497;23;20056;-74
2023/04/12 01:13:31;;;;;;;14.40;2.67;;;;;;;9.78;100.00;100367.84;5980848;23;20054;-74
2023/04/12 01:16:07;;;;;;;8.32;2.67;;;;;;;9.74;100.00;100369.91;5958108;23;20087;-74
2023/04/12 01:18:40;;;;;;;10.75;3.00;;;;;;;9.75;100.00;100365.41;5960493;23;20441;-74
2023/04/12 01:21:15;;;;;;;17.63;2.83;;;;;;;9.67;100.00;100357.94;5981871;23;20019;-74
2023/04/12 01:24:00;;;;;;;12.45;3.40;;;;;;;9.93;100.00;100357.97;5956932;23;20102;-74
2023/04/12 01:26:32;;;;;;;7.40;2.55;;;;;;;9.75;100.00;100344.13;5976746;23;20058;-75
2023/04/12 01:29:03;;;;;;;10.25;3.33;;;;;;;9.71;100.00;100329.31;5978026;23;20248;-74
2023/04/12 01:31:31;;;;;;;13.07;3.40;;;;;;;9.78;100.00;100309.28;5979151;23;20250;-74
2023/04/12 01:33:58;;;;;;;9.73;2.92;;;;;;;9.70;100.00;100311.63;5981974;23;20020;-75
2023/04/12 01:36:26;;;;;;;16.05;3.13;;;;;;;9.59;100.00;100307.03;5933657;23;20027;-75
2023/04/12 01:38:53;;;;;;;11.68;2.45;;;;;;;9.41;100.00;100303.81;5954448;23;20011;-74
2023/04/12 01:41:19;;;;;;;12.25;2.97;;;;;;;9.41;100.00;100289.66;5978687;23;20082;-75
2023/04/12 01:43:46;;;;;;;7.38;2.60;;;;;;;9.34;100.00;100291.88;5996875;23;20778;-74
2023/04/12 01:46:15;;;;;;;8.75;2.42;;;;;;;9.34;100.00;100283.91;6096164;23;20788;-75
2023/04/12 01:48:47;;;;;;;8.00;3.05;;;;;;;9.44;100.00;100277.00;6094689;23;20017;-75
2023/04/12 01:51:37;;;;;;;11.35;2.40;;;;;;;9.33;100.00;100264.38;6045147;23;20017;-74
2023/04/12 01:54:10;;;;;;;10.10;2.38;;;;;;;9.28;100.00;100258.53;6098880;23;20014;-75
2023/04/12 01:56:43;;;;;;;6.10;2.05;;;;;;;9.25;100.00;100255.25;6072397;23;20018;-75
2023/04/12 01:59:14;;;;;;;11.13;3.00;;;;;;;9.24;100.00;100241.09;6069180;23;20372;-73
2023/04/12 02:01:43;;;;;;;12.55;2.13;;;;;;;9.39;100.00;100244.53;6067109;23;20296;-76
2023/04/12 02:04:10;;;;;;;4.65;2.30;;;;;;;9.14;100.00;100240.00;6078006;23;20018;-77
2023/04/12 02:06:36;;;;;;;8.98;2.03;;;;;;;9.19;100.00;100232.56;6078585;23;20114;-76
2023/04/12 02:09:04;;;;;;;6.22;2.10;;;;;;;9.14;100.00;100228.50;6068065;23;20022;-74
2023/04/12 02:11:31;;;;;;;9.85;2.65;;;;;;;9.19;100.00;100221.06;6045280;23;20006;-74
2023/04/12 02:13:57;;;;;;;6.60;2.30;;;;;;;9.14;100.00;100210.75;6068151;23;20085;-76
2023/04/12 02:16:23;;;;;;;10.45;2.80;;;;;;;9.03;100.00;100210.59;6066216;23;20708;-76
2023/04/12 02:18:49;;;;;;;12.88;2.20;;;;;;;9.07;100.00;100207.63;6069275;23;20018;-74
2023/04/12 02:21:15;;;;;;;8.75;2.15;;;;;;;9.11;100.00;100196.78;6070683;23;20030;-76
2023/04/12 02:23:42;;;;;;;11.77;3.10;;;;;;;9.07;100.00;100197.00;6069597;23;20045;-76
2023/04/12 02:26:11;;;;;;;6.35;2.85;;;;;;;9.11;100.00;100194.97;6078506;23;20041;-77
2023/04/12 02:28:38;;;;;;;9.15;2.35;;;;;;;9.04;100.00;100186.56;6075905;23;20036;-76
2023/04/12 02:31:08;;;;;;;7.63;2.47;;;;;;;8.98;100.00;100179.00;6078456;23;20033;-76
2023/04/12 02:33:35;;;;;;;7.32;2.40;;;;;;;9.08;100.00;100180.06;6078138;23;20011;-76
2023/04/12 02:36:02;;;;;;;10.68;2.75;;;;;;;9.09;100.00;100172.97;6073926;23;20033;-76
2023/04/12 02:38:28;;;;;;;7.57;2.40;;;;;;;9.05;100.00;100153.69;6068934;23;20264;-74
2023/04/12 02:40:55;;;;;;;9.98;2.92;;;;;;;8.88;100.00;100153.97;6067904;23;20006;-76
2023/04/12 02:43:22;;;;;;;11.85;3.20;;;;;;;8.79;100.00;100134.19;6042762;23;20049;-74
2023/04/12 02:45:57;;;;;;;8.13;2.67;;;;;;;8.77;100.00;100114.81;6070451;23;20612;-77
2023/04/12 02:48:22;;;;;;;9.65;3.38;;;;;;;8.80;100.00;100104.00;6070163;23;20093;-74
2023/04/12 02:50:48;;;;;;;8.20;2.35;;;;;;;8.88;100.00;100105.28;6067216;23;20398;-76
2023/04/12 02:53:20;;;;;;;17.05;3.10;;;;;;;8.75;100.00;100090.16;6067650;23;20033;-77
2023/04/12 02:55:56;;;;;;;9.18;2.22;;;;;;;8.88;100.00;100086.66;6046337;23;21043;-74
2023/04/12 02:58:26;;;;;;;8.60;2.85;;;;;;;8.79;100.00;100077.53;6069612;23;20381;-77
2023/04/12 03:00:52;;;;;;;10.45;2.10;;;;;;;8.68;100.00;100075.56;6068036;23;20057;-75
2023/04/12 03:03:24;;;;;;;9.37;3.13;;;;;;;8.65;100.00;100057.19;6066491;23;20053;-77
2023/04/12 03:05:53;;;;;;;12.63;2.45;;;;;;;8.90;100.00;100044.88;6067501;23;20101;-77
2023/04/12 03:08:20;;;;;;;6.07;2.30;;;;;;;8.94;100.00;100041.91;6069683;23;20022;-75
2023/04/12 03:10:51;;;;;;;6.60;2.65;;;;;;;8.73;100.00;100030.94;6067391;23;20505;-76
2023/04/12 03:13:17;;;;;;;8.93;2.53;;;;;;;8.82;100.00;100029.44;6065622;23;20170;-77
2023/04/12 03:15:48;;;;;;;11.15;2.00;;;;;;;8.65;100.00;100027.13;6069150;23;20021;-77
2023/04/12 03:18:14;;;;;;;12.43;2.63;;;;;;;8.67;100.00;100022.53;6044757;23;20470;-74
2023/04/12 03:20:47;;;;;;;;;;;;;;;8.73;100.00;100009.66;6067283;23;20945;-74
2023/04/12 03:23:12;;;;;;;6.53;2.15;;;;;;;8.67;100.00;99999.47;6067813;23;19913;-76
2023/04/12 03:25:43;;;;;;;7.18;2.10;;;;;;;8.61;100.00;99991.91;6068047;23;20037;-74
2023/04/12 03:28:27;;;;;;;4.15;2.03;;;;;;;8.86;100.00;99983.09;6067835;23;20033;-76
2023/04/12 03:30:53;;;;;;;4.88;2.65;;;;;;;8.80;100.00;99981.72;6067844;23;20018;-77
2023/04/12 03:33:21;;;;;;;11.95;3.75;;;;;;;8.93;100.00;99980.84;6067028;23;20807;-77
2023/04/12 03:35:51;;;;;;;9.10;2.20;;;;;;;8.81;100.00;99972.78;6045987;23;20029;-77
2023/04/12 03:38:17;;;;;;;5.00;2.30;;;;;;;8.71;100.00;99970.88;6064932;23;20022;-77
2023/04/12 03:40:43;;;;;;;7.00;2.10;;;;;;;8.88;100.00;99965.22;6065865;23;20512;-76
2023/04/12 03:43:10;;;;;;;11.43;2.40;;;;;;;8.86;100.00;99961.81;6069090;23;20642;-74
2023/04/12 03:45:35;;;;;;;7.22;2.63;;;;;;;8.92;100.00;99948.09;6051236;23;20830;-75
2023/04/12 03:48:03;;;;;;;5.60;2.83;;;;;;;8.87;100.00;99942.25;6045538;23;20018;-76
2023/04/12 03:50:43;;;;;;;4.63;1.90;;;;;;;8.88;100.00;99941.28;6065488;23;20444;-76
2023/04/12 03:53:13;;;;;;;5.50;2.13;;;;;;;8.80;100.00;99928.56;6065663;23;20014;-74
2023/04/12 03:55:42;;;;;;;7.47;2.28;;;;;;;8.77;100.00;99936.72;6066349;23;20034;-76
2023/04/12 03:58:08;;;;;;;3.17;1.77;;;;;;;8.86;100.00;99937.06;6044502;23;20764;-75
2023/04/12 04:00:41;;;;;;;7.47;2.33;;;;;;;9.03;100.00;99934.03;6075076;23;20018;-75
2023/04/12 04:03:20;;;;;;;8.48;1.85;;;;;;;8.84;100.00;99921.22;6076585;23;20018;-74
2023/04/12 04:05:55;;;;;;;6.13;2.83;;;;;;;8.80;100.00;99923.25;6080105;23;20018;-75
2023/04/12 04:08:21;;;;;;;5.55;1.83;;;;;;;8.92;100.00;99928.63;6077191;23;20016;-76
2023/04/12 04:10:51;;;;;;;8.13;3.00;;;;;;;8.94;100.00;99919.59;6108792;23;20038;-77
2023/04/12 04:13:18;;;;;;;6.82;2.40;;;;;;;8.84;100.00;99912.41;6082229;23;20040;-76
2023/04/12 04:16:13;;;;;;;10.65;2.97;;;;;;;8.89;100.00;99910.25;6082691;23;20014;-74
2023/04/12 04:18:39;;;;;;;5.78;2.30;;;;;;;8.92;100.00;99915.34;6074703;23;20314;-76
2023/04/12 04:21:08;;;;;;;8.25;2.75;;;;;;;8.90;100.00;99911.94;6070883;23;20050;-75
2023/04/12 04:23:43;;;;;;;11.68;3.20;;;;;;;8.76;100.00;99900.47;6095711;23;20021;-74
2023/04/12 04:26:12;;;;;;;7.38;2.20;;;;;;;8.83;100.00;99898.22;6097694;23;20085;-76
2023/04/12 04:28:49;;;;;;;6.07;2.28;;;;;;;8.74;100.00;99890.94;6072202;23;20014;-75
2023/04/12 04:31:17;;;;;;;7.78;2.33;;;;;;;8.65;100.00;99894.25;6069219;23;20092;-76
2023/04/12 04:33:46;;;;;;;9.18;3.95;;;;;;;8.76;100.00;99887.19;6069983;23;20014;-75
2023/04/12 04:36:12;;;;;;;7.18;2.38;;;;;;;8.76;100.00;99886.34;6070343;23;20306;-76
2023/04/12 04:38:53;;;;;;;5.43;1.75;;;;;;;8.49;100.00;99863.44;6067970;23;20014;-76
2023/04/12 04:41:39;;;;;;;4.13;2.10;;;;;;;8.41;100.00;99868.44;6073124;23;20021;-76
2023/04/12 04:44:09;;;;;;;7.85;2.45;;;;;;;8.60;100.00;99875.13;6098422;23;20199;-76
2023/04/12 04:46:38;;;;;;;6.43;2.38;;;;;;;8.59;100.00;99865.44;6072192;23;20097;-75
2023/04/12 04:49:08;;;;;;;3.28;1.95;;;;;;;8.44;100.00;99875.34;6068093;23;20379;-76
2023/04/12 04:51:34;;;;;;;5.47;2.70;;;;;;;8.53;100.00;99872.91;6043630;23;20401;-75
2023/04/12 04:54:02;;;;;;;5.40;2.28;;;;;;;8.55;100.00;99870.13;6067463;23;20186;-76
2023/04/12 04:56:31;;;;;;;6.05;2.70;;;;;;;8.69;100.00;99864.69;6067981;23;20022;-75
2023/04/12 04:58:57;;;;;;;10.70;2.60;;;;;;;8.57;100.00;99854.91;6066351;23;20116;-74
2023/04/12 05:01:27;;;;;;;6.05;2.55;;;;;;;8.56;100.00;99859.38;6094470;23;20449;-75
2023/04/12 05:03:54;;;;;;;4.70;2.40;;;;;;;8.39;100.00;99851.75;6066945;23;20429;-75
2023/04/12 05:06:21;;;;;;;6.72;3.03;;;;;;;8.76;100.00;99865.09;6069260;23;20013;-74
2023/04/12 05:08:47;;;;;;;4.78;2.63;;;;;;;8.72;100.00;99852.97;6045962;23;20010;-74
2023/04/12 05:11:24;;;;;;;6.93;2.63;;;;;;;8.64;100.00;99858.84;6068764;23;20018;-75
2023/04/12 05:13:50;;;;;;;6.03;2.80;;;;;;;8.63;100.00;99845.66;6092099;23;20014;-76
2023/04/12 05:16:15;;;;;;;5.03;2.30;;;;;;;8.57;100.00;99845.13;6092190;23;20024;-75
2023/04/12 05:18:41;;;;;;;3.58;2.00;;;;;;;8.59;100.00;99836.22;6067518;23;20618;-75
2023/04/12 05:21:07;;;;;;;7.15;3.45;;;;;;;8.46;100.00;99829.09;6099518;23;20081;-75
2023/04/12 05:23:42;;;;;;;10.52;3.05;;;;;;;8.59;100.00;99834.41;6071835;23;20022;-75
2023/04/12 05:26:09;;;;;;;5.18;2.45;;;;;;;8.60;100.00;99833.44;6064970;23;20275;-73
2023/04/12 05:28:35;;;;;;;5.28;2.42;;;;;;;8.74;100.00;99827.16;6091621;23;20102;-73
2023/04/12 05:31:02;;;;;;;4.78;2.58;;;;;;;8.82;100.00;99824.75;6045319;23;20124;-75
2023/04/12 05:33:35;;;;;;;5.85;2.90;;;;;;;8.94;100.00;99815.91;6075133;23;20041;-74
2023/04/12 05:36:21;;;;;;;6.28;2.45;;;;;;;8.87;100.00;99811.13;6072508;23;20453;-75
2023/04/12 05:38:47;;;;;;;6.95;3.50;;;;;;;8.82;100.00;99800.84;6073152;23;20009;-72
2023/04/12 05:41:14;;;;;;;11.10;3.20;;;;;;;8.78;100.00;99802.88;6097301;23;20014;-75
2023/04/12 05:43:39;;;;;;;6.70;3.25;;;;;;;8.79;100.00;99795.78;6094836;23;20014;-73
2023/04/12 05:46:07;;;;;;;9.75;3.13;;;;;;;8.79;100.00;99796.63;6064914;23;20504;-75
2023/04/12 05:48:33;;;;;;;9.05;2.92;;;;;;;8.76;100.00;99783.53;6067244;23;20022;-74
2023/04/12 05:51:01;;;;;;;6.32;2.72;;;;;;;8.88;100.00;99784.44;6068050;23;20060;-74
2023/04/12 05:53:31;;;;;;;10.50;3.17;;;;;;;8.86;100.00;99778.41;6091579;23;20101;-75
2023/04/12 05:56:00;;;;;;;8.02;2.92;;;;;;;8.94;100.00;99778.69;6092219;23;20045;-73
2023/04/12 05:58:27;;;;;;;4.18;2.85;;;;;;;8.99;100.00;99778.34;6066327;23;20641;-72
2023/04/12 06:00:54;;;;;;;5.13;2.83;;;;;;;8.89;100.00;99772.88;6062072;23;20029;-75
2023/04/12 06:03:28;;;;;;;8.15;3.67;;;;;;;8.91;100.00;99778.91;6063965;23;20520;-72
2023/04/12 06:05:58;;;;;;;7.97;3.00;;;;;;;9.12;100.00;99778.28;6039621;23;20632;-73
2023/04/12 06:08:23;;;;;;;8.63;2.95;;;;;;;8.84;100.00;99775.00;6063980;23;20018;-72
2023/04/12 06:10:49;;;;;;;6.30;2.95;;;;;;;8.74;100.00;99771.34;6063465;23;20578;-75
2023/04/12 06:13:15;;;;;;;11.65;3.88;;;;;;;8.54;100.00;99764.81;6040766;23;20036;-72
2023/04/12 06:15:42;;;;;;;4.15;2.83;;;;;;;8.71;100.00;99774.19;6060799;23;20847;-74
2023/04/12 06:18:12;;;;;;;4.47;3.15;;;;;;;8.82;100.00;99784.88;6069470;23;20022;-72
2023/04/12 06:20:43;;;;;;;6.07;3.20;;;;;;;8.80;100.00;99779.69;6064369;23;20049;-73
2023/04/12 06:23:09;;;;;;;10.40;3.40;;;;;;;8.80;100.00;99778.84;6067072;23;20018;-74
2023/04/12 06:25:36;;;;;;;7.88;3.92;;;;;;;8.87;100.00;99785.41;6057766;23;20018;-74
2023/04/12 06:28:03;;;;;;;5.75;3.80;;;;;;;8.63;100.00;99788.03;6060043;23;20114;-72
2023/04/12 06:30:31;;;;;;;12.70;5.22;;;;;;;8.87;100.00;99784.56;6058949;23;20029;-72
2023/04/12 06:32:56;;;;;;;14.75;4.63;;;;;;;8.97;100.00;99780.25;6063474;23;20110;-72
2023/04/12 06:35:22;;;;;;;9.45;3.83;;;;;;;8.89;100.00;99783.50;6063201;23;20140;-72
2023/04/12 06:37:50;;;;;;;7.90;4.75;;;;;;;9.04;100.00;99777.06;6069790;23;20014;-73
2023/04/12 06:40:19;;;;;;;6.75;4.07;;;;;;;9.28;100.00;99761.03;6065388;23;20030;-72
2023/04/12 06:42:44;;;;;;;9.68;4.75;;;;;;;8.93;100.00;99762.84;6063402;23;20018;-72
2023/04/12 06:45:10;;;;;;;11.35;4.53;;;;;;;8.97;100.00;99748.34;6063605;23;20021;-72
2023/04/12 06:47:35;;;;;;;6.28;4.35;;;;;;;9.07;100.00;99750.22;6064923;23;20042;-71
2023/04/12 06:50:01;;;;;;;7.53;4.60;;;;;;;8.98;100.00;99750.88;6064910;23;20057;-74
2023/04/12 06:52:27;;;;;;;11.02;4.93;;;;;;;9.30;100.00;99755.63;6065717;23;20350;-72
2023/04/12 06:54:55;;;;;;;9.20;4.80;;;;;;;9.27;100.00;99751.38;6064457;23;20017;-72
2023/04/12 06:57:26;;;;;;;9.93;4.50;;;;;;;9.27;100.00;99750.53;6064197;23;20028;-72
2023/04/12 06:59:52;;;;;;;9.80;4.55;;;;;;;9.29;100.00;99746.81;6060967;23;20018;-72
2023/04/12 07:02:17;;;;;;;7.65;5.00;;;;;;;9.38;100.00;99731.09;6088454;23;20018;-71
2023/04/12 07:04:43;;;;;;;15.13;5.95;;;;;;;9.36;100.00;99738.34;6097084;23;20018;-72
2023/04/12 07:07:09;;;;;;;10.10;4.40;;;;;;;9.24;100.00;99729.50;6095015;23;20032;-72
2023/04/12 07:09:40;;;;;;;8.43;4.75;;;;;;;9.35;100.00;99732.19;6096290;23;20018;-72
2023/04/12 07:12:06;;;;;;;6.95;4.60;;;;;;;9.59;100.00;99732.13;6093428;23;20342;-72
2023/04/12 07:14:31;;;;;;;8.43;5.05;;;;;;;9.54;100.00;99724.50;6067254;23;20066;-72
2023/04/12 07:16:57;;;;;;;7.30;4.53;;;;;;;9.47;100.00;99722.41;6093717;23;20594;-72
2023/04/12 07:19:22;;;;;;;8.70;4.85;;;;;;;9.66;100.00;99711.19;6065414;23;20773;-72
2023/04/12 07:21:48;;;;;;;6.82;4.45;;;;;;;9.66;100.00;99712.03;6093437;23;20089;-72
2023/04/12 07:24:14;;;;;;;6.05;4.65;;;;;;;9.82;100.00;99707.22;6096630;23;20010;-73
2023/04/12 07:26:39;;;;;;;7.57;4.55;;;;;;;10.03;100.00;99709.16;6096522;23;20014;-72
2023/04/12 07:29:05;;;;;;;6.60;4.57;;;;;;;9.83;100.00;99702.72;6097762;23;20089;-73
2023/04/12 07:31:34;;;;;;;5.85;4.63;;;;;;;10.30;100.00;99695.47;6069549;23;20018;-72
2023/04/12 07:34:00;;;;;;;6.22;4.45;;;;;;;10.15;100.00;99702.84;6095457;23;20598;-74
2023/04/12 07:36:26;;;;;;;7.82;4.50;;;;;;;10.15;100.00;99713.50;6095698;23;20021;-72
2023/04/12 07:38:54;;;;;;;7.70;4.43;;;;;;;10.03;100.00;99717.97;6094044;23;20021;-73
2023/04/12 07:41:21;;;;;;;4.55;3.30;;;;;;;10.00;100.00;99706.75;6093729;23;20009;-72
2023/04/12 07:43:47;;;;;;;6.57;4.07;;;;;;;9.82;100.00;99715.19;6094461;23;20450;-71
2023/04/12 07:46:12;;;;;;;12.48;5.85;;;;;;;9.93;100.00;99698.38;6096276;23;20014;-71
2023/04/12 07:48:38;;;;;;;5.70;3.67;;;;;;;10.04;100.00;99703.72;6095388;23;20018;-72
2023/04/12 07:51:04;;;;;;;4.90;4.30;;;;;;;10.21;100.00;99691.69;6098430;23;20014;-71
2023/04/12 07:53:30;;;;;;;7.20;4.28;;;;;;;9.99;100.00;99691.72;6096001;23;20403;-72
2023/04/12 07:55:56;;;;;;;7.32;4.50;;;;;;;10.09;100.00;99693.53;6094041;23;20010;-72
2023/04/12 07:58:23;;;;;;;5.85;3.88;;;;;;;9.69;100.00;99716.25;6094561;23;20014;-72
2023/04/12 08:00:49;;;;;;;7.88;3.80;;;;;;;9.75;100.00;99723.78;6068904;23;20018;-72
2023/04/12 08:03:16;;;;;;;5.80;3.15;;;;;;;9.69;100.00;99718.91;6096942;23;20551;-72
2023/04/12 08:05:52;;;;;;;10.57;3.20;;;;;;;9.81;100.00;99717.97;6096309;23;20022;-74
2023/04/12 08:08:21;;;;;;;3.83;2.75;;;;;;;9.71;100.00;99711.69;6096142;23;20138;-72
2023/04/12 08:10:51;;;;;;;7.47;2.75;;;;;;;9.99;100.00;99716.53;6094501;23;20477;-74
2023/04/12 08:13:19;;;;;;;8.18;3.13;;;;;;;9.95;100.00;99712.44;6096270;23;20080;-72
2023/04/12 08:15:48;;;;;;;5.20;3.80;;;;;;;10.08;100.00;99715.78;6095530;23;20101;-74
2023/04/12 08:18:14;;;;;;;10.50;3.97;;;;;;;10.15;100.00;99718.84;6094839;23;20069;-72
2023/04/12 08:20:40;;;;;;;5.70;3.70;;;;;;;10.32;100.00;99718.34;6096457;23;20315;-72
2023/04/12 08:23:06;;;;;;;5.75;3.55;;;;;;;10.24;100.00;99728.81;6073888;23;20014;-72
2023/04/12 08:25:32;;;;;;;9.82;3.92;;;;;;;10.52;100.00;99724.75;6097071;23;20020;-72
2023/04/12 08:27:58;;;;;;;4.53;2.95;;;;;;;10.42;100.00;99729.13;6068856;23;20022;-72
2023/04/12 08:30:25;;;;;;;6.32;2.60;;;;;;;10.67;100.00;99716.47;6095101;23;20088;-72
2023/04/12 08:32:52;;;;;;;4.53;2.92;;;;;;;10.92;100.00;99702.81;6069385;23;20020;-73
2023/04/12 08:35:18;;;;;;;5.38;3.08;;;;;;;10.79;100.00;99719.00;6096651;23;20014;-73
2023/04/12 08:37:44;;;;;;;5.28;3.08;;;;;;;10.76;100.00;99703.22;6068823;23;20017;-73
2023/04/12 08:40:10;;;;;;;10.05;2.85;;;;;;;11.15;100.00;99712.41;6095181;23;20021;-71
2023/04/12 08:42:37;;;;;;;8.05;3.05;;;;;;;11.62;100.00;99712.84;6094085;23;20540;-73
2023/04/12 08:45:13;;;;;;;6.82;3.25;;;;;;;11.80;100.00;99701.59;6094467;23;20149;-73
2023/04/12 08:47:41;;;;;;;7.82;2.65;;;;;;;11.62;100.00;99709.34;6070581;23;20018;-73
2023/04/12 08:50:11;;;;;;;4.10;2.80;;;;;;;11.78;100.00;99711.53;6097634;23;20014;-73
2023/04/12 08:52:37;;;;;;;4.78;2.55;;;;;;;11.76;100.00;99701.00;6095747;23;20025;-74
2023/04/12 08:55:08;;;;;;;7.68;2.80;;;;;;;11.78;100.00;99698.19;6099823;23;20014;-72
2023/04/12 08:57:35;;;;;;;5.95;2.65;;;;;;;11.91;100.00;99698.84;6073290;23;20837;-73
2023/04/12 09:00:02;;;;;;;11.15;3.20;;;;;;;11.65;100.00;99693.06;6069337;23;20022;-73
2023/04/12 09:02:28;;;;;;;8.82;4.38;;;;;;;11.54;100.00;99698.47;6069037;23;20017;-73
2023/04/12 09:04:54;;;;;;;7.20;2.75;;;;;;;11.36;100.00;99699.06;6095240;23;20036;-73
2023/04/12 09:07:29;;;;;;;8.95;2.47;;;;;;;11.89;100.00;99700.78;6067883;23;20842;-74
2023/04/12 09:10:05;;;;;;;6.10;2.35;;;;;;;11.79;100.00;99699.88;6096786;23;20089;-73
2023/04/12 09:12:31;;;;;;;10.13;3.17;;;;;;;12.27;100.00;99688.56;6093440;23;20263;-73
2023/04/12 09:15:16;;;;;;;10.25;2.53;;;;;;;12.85;100.00;99704.69;6093656;23;20013;-73
2023/04/12 09:17:42;;;;;;;11.75;2.83;;;;;;;12.74;100.00;99688.78;6095513;23;20022;-73
2023/04/12 09:20:16;;;;;;;8.38;1.95;;;;;;;13.20;100.00;99682.72;6072004;23;20606;-73
2023/04/12 09:22:44;;;;;;;16.77;3.25;;;;;;;13.53;100.00;99677.91;6096944;23;20018;-74
2023/04/12 09:25:11;;;;;;;9.55;2.42;;;;;;;13.21;100.00;99685.31;6098761;23;20020;-73
2023/04/12 09:27:50;;;;;;;7.20;3.25;;;;;;;12.86;100.00;99676.97;6099059;23;20093;-73
2023/04/12 09:30:18;;;;;;;11.18;2.30;;;;;;;12.57;100.00;99680.47;6069693;23;20465;-72
2023/04/12 09:32:44;;;;;;;8.77;2.20;;;;;;;13.07;100.00;99671.47;6100410;23;20024;-72
2023/04/12 09:35:09;;;;;;;12.88;2.92;;;;;;;12.87;100.00;99662.63;6102644;23;20014;-72
2023/04/12 09:37:35;;;;;;;12.70;2.58;;;;;;;13.16;100.00;99654.56;6077222;23;20450;-73
2023/04/12 09:40:03;;;;;;;11.80;2.65;;;;;;;13.89;100.00;99658.31;6077959;23;20021;-73
2023/04/12 09:42:29;;;;;;;12.45;3.28;;;;;;;14.18;100.00;99641.25;6102818;23;20651;-71
2023/04/12 09:44:56;;;;;;;14.18;2.30;;;;;;;14.62;100.00;99636.06;6070938;23;20006;-74
2023/04/12 09:47:38;;;;;;;11.85;3.20;;;;;;;14.39;100.00;99639.16;6097622;23;20329;-74
2023/04/12 09:50:06;;;;;;;12.55;3.15;;;;;;;14.64;100.00;99629.53;6097272;23;20398;-74
2023/04/12 09:52:39;;;;;;;17.77;2.95;;;;;;;14.81;100.00;99630.56;6095452;23;20373;-73
2023/04/12 09:55:09;;;;;;;15.93;3.58;;;;;;;14.16;100.00;99638.75;6098547;23;20062;-74
2023/04/12 09:57:43;;;;;;;17.70;3.80;;;;;;;14.32;100.00;99639.91;6094930;23;20014;-73
2023/04/12 10:00:12;;;;;;;15.85;2.85;;;;;;;14.83;100.00;99631.22;6069683;23;20028;-74
2023/04/12 10:02:42;;;;;;;9.88;3.05;;;;;;;15.01;100.00;99631.22;6095827;23;20018;-74
2023/04/12 10:05:16;;;;;;;17.52;3.15;;;;;;;14.35;100.00;99642.28;6095981;23;20013;-73
2023/04/12 10:07:43;;;;;;;16.80;3.53;;;;;;;14.84;100.00;99638.28;6094577;23;20479;-74
2023/04/12 10:10:11;;;;;;;12.38;4.00;;;;;;;14.92;99.09;99637.53;6098099;23;20024;-74
2023/04/12 10:12:41;;;;;;;17.38;2.80;;;;;;;14.66;100.00;99643.66;6099130;23;20009;-73
2023/04/12 10:15:12;;;;;;;16.45;3.08;;;;;;;14.64;100.00;99639.44;6072094;23;20026;-73
2023/04/12 10:17:46;;;;;;;18.75;3.17;;;;;;;14.55;97.74;99634.97;6098222;23;20014;-73
2023/04/12 10:20:14;;;;;;;14.85;3.63;;;;;;;15.30;93.34;99636.28;6099355;23;20018;-74
2023/04/12 10:22:42;;;;;;;11.90;3.63;;;;;;;15.22;89.70;99639.78;6073280;23;20101;-73
2023/04/12 10:25:14;;;;;;;11.30;3.72;;;;;;;15.90;90.68;99628.28;6098874;23;20014;-74
2023/04/12 10:27:41;;;;;;;13.68;3.33;;;;;;;16.34;91.46;99630.78;6099385;23;20024;-74
2023/04/12 10:30:30;;;;;;;14.73;2.83;;;;;;;14.85;85.34;99629.22;6098060;23;20037;-74
2023/04/12 10:33:01;;;;;;;17.52;3.50;;;;;;;15.77;80.69;99623.34;6099996;23;20183;-74
2023/04/12 10:35:28;;;;;;;16.77;3.45;;;;;;;15.83;83.84;99616.50;6100317;23;20022;-74
2023/04/12 10:38:00;;;;;;;17.05;3.35;;;;;;;16.08;78.69;99617.44;6047942;23;20013;-73
2023/04/12 10:40:26;;;;;;;12.48;3.38;;;;;;;15.71;79.22;99615.94;6071829;23;20369;-74
2023/04/12 10:43:27;;;;;;;24.55;5.43;;;;;;;15.79;83.49;99623.19;6099858;23;20859;-74
2023/04/12 10:45:52;;;;;;;16.25;3.20;;;;;;;15.58;79.37;99626.25;6099492;23;20014;-73
2023/04/12 10:48:38;;;;;;;16.23;3.47;;;;;;;15.36;78.28;99627.63;6073111;23;20562;-74
2023/04/12 10:51:27;;;;;;;19.08;3.25;;;;;;;15.27;74.00;99617.81;6101781;23;20056;-73
2023/04/12 10:54:06;;;;;;;14.32;3.65;;;;;;;15.33;81.14;99625.25;6072695;23;20128;-74
2023/04/12 10:56:40;;;;;;;20.83;3.58;;;;;;;15.51;74.21;99620.69;6106651;23;20036;-74
2023/04/12 10:59:09;;;;;;;16.45;3.75;;;;;;;15.53;73.26;99617.81;6084459;23;20038;-73
2023/04/12 11:01:41;;;;;;;12.90;3.15;;;;;;;14.84;80.33;99621.34;6085414;23;20075;-74
2023/04/12 11:04:20;;;;;;;10.18;3.17;;;;;;;15.06;77.01;99626.25;6077576;23;20101;-73
2023/04/12 11:07:12;;;;;;;21.58;4.13;;;;;;;16.11;76.03;99613.56;6078284;23;20277;-73
2023/04/12 11:09:41;;;;;;;18.73;3.42;;;;;;;17.26;75.09;99613.53;6113039;23;20048;-74
2023/04/12 11:12:14;;;;;;;17.77;3.78;;;;;;;16.92;68.41;99605.69;6104426;23;20016;-73
2023/04/12 11:14:46;;;;;;;17.63;4.45;;;;;;;16.15;71.09;99606.84;6104195;23;20029;-73
2023/04/12 11:17:12;;;;;;;15.15;3.47;;;;;;;16.30;72.25;99613.28;6077909;23;20016;-73
2023/04/12 11:19:52;;;;;;;14.32;3.20;;;;;;;16.49;74.82;99599.53;6077170;23;20093;-74
2023/04/12 11:22:20;;;;;;;16.30;4.22;;;;;;;16.12;73.13;99604.50;6103825;23;20141;-73
2023/04/12 11:24:50;;;;;;;11.98;3.70;;;;;;;15.21;75.47;99613.94;6100853;23;20014;-74
2023/04/12 11:27:19;;;;;;;13.63;3.97;;;;;;;15.33;80.05;99616.34;6100777;23;20013;-74
2023/04/12 11:29:48;;;;;;;30.17;5.55;;;;;;;14.51;82.14;99621.06;6101406;23;20048;-74
2023/04/12 11:32:14;;;;;;;12.73;3.33;;;;;;;14.38;82.01;99625.91;6074758;23;20129;-74
2023/04/12 11:34:42;;;;;;;19.58;4.35;;;;;;;14.36;84.07;99630.59;6100535;23;20109;-74
2023/04/12 11:37:08;;;;;;;15.23;3.40;;;;;;;14.02;84.99;99625.84;6101138;23;20013;-73